Time;durP1;ratioP1;P1;durP2;ratioP2;P2;SDS_P1;SDS_P2;PMS_P1;PMS_P2;Temp;Humidity;BMP_temperature;BMP_pressure;BME280_temperature;BME280_humidity;BME280_pressure;Samples;Min_cycle;Max_cycle;Signal;HPM_P1;HPM_P2
2022/03/05 00:00:20;;;;;;;52.67;21.00;;;;;;;-1.42;nan;100716.13;5098533;28;20430;-70
2022/03/05 00:02:46;;;;;;;55.13;20.52;;;;;;;-1.36;nan;100740.59;5104284;28;20619;-69
2022/03/05 00:05:13;;;;;;;53.42;20.77;;;;;;;-1.34;nan;100734.34;5100291;28;20032;-70
2022/03/05 00:07:39;;;;;;;55.63;20.70;;;;;;;-1.39;nan;100726.19;5101735;28;20032;-70
2022/03/05 00:10:05;;;;;;;48.40;19.70;;;;;;;-1.41;nan;100729.84;5111794;28;20035;-70
2022/03/05 00:12:30;;;;;;;55.88;20.73;;;;;;;-1.41;nan;100724.69;5109274;28;20091;-70
2022/03/05 00:14:56;;;;;;;54.13;21.33;;;;;;;-1.42;nan;100728.22;5100005;28;20074;-71
2022/03/05 00:17:22;;;;;;;56.78;21.17;;;;;;;-1.55;nan;100721.59;5092621;28;20039;-70
2022/03/05 00:19:47;;;;;;;50.22;20.08;;;;;;;-1.60;nan;100717.81;5109093;28;20032;-70
2022/03/05 00:22:12;;;;;;;54.58;20.50;;;;;;;-1.54;nan;100723.22;5093828;28;20389;-69
2022/03/05 00:24:38;;;;;;;53.88;20.23;;;;;;;-1.53;nan;100724.06;5098914;28;20380;-70
2022/03/05 00:27:04;;;;;;;55.35;21.15;;;;;;;-1.58;nan;100716.72;5100133;28;20039;-70
2022/03/05 00:29:30;;;;;;;54.55;20.77;;;;;;;-1.59;nan;100709.09;5097623;28;20038;-70
2022/03/05 00:31:56;;;;;;;50.25;20.27;;;;;;;-1.64;nan;100716.44;5090530;28;20027;-71
2022/03/05 00:34:21;;;;;;;53.75;21.20;;;;;;;-1.72;nan;100707.63;5090413;28;20032;-70
2022/03/05 00:36:46;;;;;;;53.50;19.45;;;;;;;-1.61;nan;100716.16;5080854;28;20119;-70
2022/03/05 00:39:12;;;;;;;53.05;20.90;;;;;;;-1.79;nan;100695.41;5098476;28;20197;-70
2022/03/05 00:41:37;;;;;;;51.20;20.63;;;;;;;-1.78;nan;100702.19;5095466;28;20027;-70
2022/03/05 00:44:03;;;;;;;49.70;20.33;;;;;;;-1.91;nan;100688.75;5094627;28;20362;-70
2022/03/05 00:46:28;;;;;;;53.05;20.27;;;;;;;-1.75;nan;100719.97;5082123;28;20043;-70
2022/03/05 00:48:54;;;;;;;49.47;19.45;;;;;;;-1.80;nan;100704.88;5085830;28;20498;-71
2022/03/05 00:51:19;;;;;;;49.50;19.55;;;;;;;-1.81;nan;100703.28;5094825;28;20042;-71
2022/03/05 00:53:45;;;;;;;55.63;20.95;;;;;;;-1.87;nan;100703.81;5096231;28;20036;-70
2022/03/05 00:56:10;;;;;;;52.63;20.88;;;;;;;-2.02;nan;100690.50;5104746;28;20394;-71
2022/03/05 00:58:36;;;;;;;53.00;20.45;;;;;;;-2.00;nan;100688.59;5101515;28;20058;-71
2022/03/05 01:01:02;;;;;;;54.17;21.42;;;;;;;-1.91;nan;100711.97;5094880;28;20043;-69
2022/03/05 01:03:27;;;;;;;52.95;20.98;;;;;;;-2.00;nan;100701.50;5100947;28;20028;-70
2022/03/05 01:05:53;;;;;;;58.05;21.63;;;;;;;-2.15;nan;100692.56;5086406;28;20038;-71
2022/03/05 01:08:19;;;;;;;60.50;22.20;;;;;;;-2.14;nan;100691.59;5078548;28;20115;-70
2022/03/05 01:10:45;;;;;;;60.03;21.02;;;;;;;-2.08;nan;100697.97;5097859;28;20107;-70
2022/03/05 01:13:10;;;;;;;62.20;20.85;;;;;;;-2.11;nan;100704.22;5103167;28;20035;-70
2022/03/05 01:15:35;;;;;;;60.63;21.77;;;;;;;-2.15;nan;100700.28;5099513;28;20589;-70
2022/03/05 01:18:01;;;;;;;68.78;23.70;;;;;;;-2.32;nan;100675.97;5074204;28;20112;-70
2022/03/05 01:20:26;;;;;;;77.03;25.23;;;;;;;-2.15;nan;100705.44;5097421;28;20040;-70
2022/03/05 01:22:52;;;;;;;68.40;23.90;;;;;;;-2.14;nan;100701.91;5089917;28;20111;-71
2022/03/05 01:25:18;;;;;;;69.18;24.27;;;;;;;-2.21;nan;100693.88;5095283;28;20288;-71
2022/03/05 01:27:43;;;;;;;64.72;23.27;;;;;;;-2.17;nan;100702.19;5096670;28;20035;-70
2022/03/05 01:30:09;;;;;;;76.13;23.83;;;;;;;-2.42;nan;100668.22;5100423;28;20051;-71
2022/03/05 01:32:35;;;;;;;69.22;23.85;;;;;;;-2.21;nan;100693.88;5102592;28;20031;-71
2022/03/05 01:35:00;;;;;;;63.53;22.23;;;;;;;-2.20;nan;100699.88;5095467;28;20028;-70
2022/03/05 01:37:25;;;;;;;73.47;24.88;;;;;;;-2.30;nan;100681.78;5078637;28;20100;-71
2022/03/05 01:39:51;;;;;;;62.15;22.10;;;;;;;-2.25;nan;100696.88;5071000;28;20032;-71
2022/03/05 01:42:21;;;;;;;59.78;21.60;;;;;;;-2.24;nan;100693.34;5103563;28;20635;-71
2022/03/05 01:44:46;;;;;;;58.88;21.35;;;;;;;-2.30;nan;100688.72;5089736;28;20109;-70
2022/03/05 01:47:12;;;;;;;55.40;21.83;;;;;;;-2.29;nan;100683.44;5082648;28;20435;-70
2022/03/05 01:49:37;;;;;;;60.65;22.02;;;;;;;-2.26;nan;100701.22;5096795;28;20386;-70
2022/03/05 01:52:03;;;;;;;69.97;22.92;;;;;;;-2.42;nan;100682.88;5096862;28;20040;-70
2022/03/05 01:54:29;;;;;;;63.22;23.60;;;;;;;-2.44;nan;100693.31;5094081;28;20031;-70
2022/03/05 01:56:55;;;;;;;54.65;21.48;;;;;;;-2.44;nan;100688.16;5097224;28;20040;-70
2022/03/05 01:59:21;;;;;;;65.70;23.58;;;;;;;-2.60;nan;100678.34;5101482;28;20075;-70
2022/03/05 02:01:46;;;;;;;59.90;22.45;;;;;;;-2.62;nan;100677.66;5089670;28;20064;-70
2022/03/05 02:04:12;;;;;;;63.45;22.98;;;;;;;-2.59;nan;100699.78;5092950;28;20842;-70
2022/03/05 02:06:37;;;;;;;62.72;21.83;;;;;;;-2.54;nan;100713.09;5077510;28;20028;-70
2022/03/05 02:09:03;;;;;;;63.45;22.65;;;;;;;-2.59;nan;100721.22;5094298;28;20035;-71
2022/03/05 02:11:29;;;;;;;63.90;21.60;;;;;;;-2.72;nan;100696.66;5095504;28;20035;-69
2022/03/05 02:13:55;;;;;;;60.38;22.65;;;;;;;-2.62;nan;100711.19;5097438;28;20040;-71
2022/03/05 02:16:23;;;;;;;66.22;22.30;;;;;;;-2.73;nan;100707.88;5105482;28;20066;-70
2022/03/05 02:18:50;;;;;;;62.60;22.92;;;;;;;-2.72;nan;100699.22;5093234;28;20750;-70
2022/03/05 02:21:17;;;;;;;72.10;23.83;;;;;;;-2.65;nan;100715.81;5100935;28;20040;-70
2022/03/05 02:23:43;;;;;;;67.68;23.52;;;;;;;-2.64;nan;100712.25;5100112;28;20039;-69
2022/03/05 02:26:09;;;;;;;62.28;22.52;;;;;;;-2.65;nan;100716.59;5106212;28;20385;-70
2022/03/05 02:28:36;;;;;;;59.88;22.17;;;;;;;-2.76;nan;100703.00;5102814;28;20047;-70
2022/03/05 02:31:03;;;;;;;58.70;20.70;;;;;;;-2.75;nan;100704.63;5097010;28;20059;-71
2022/03/05 02:33:28;;;;;;;50.85;19.92;;;;;;;-2.70;nan;100713.63;5102384;28;20088;-71
2022/03/05 02:35:54;;;;;;;57.80;21.40;;;;;;;-2.93;nan;100683.81;5104888;28;20161;-70
2022/03/05 02:38:22;;;;;;;62.42;21.75;;;;;;;-2.71;nan;100716.31;5096530;28;20434;-69
2022/03/05 02:40:49;;;;;;;64.13;22.00;;;;;;;-2.71;nan;100721.47;5095745;28;20111;-72
2022/03/05 02:43:15;;;;;;;57.80;21.92;;;;;;;-2.80;nan;100723.88;5103113;28;20040;-71
2022/03/05 02:45:40;;;;;;;55.13;19.85;;;;;;;-2.79;nan;100722.94;5104413;28;20036;-70
2022/03/05 02:48:10;;;;;;;60.47;22.08;;;;;;;-2.82;nan;100720.63;5102488;28;20054;-71
2022/03/05 02:50:36;;;;;;;63.92;22.55;;;;;;;-2.84;nan;100711.41;5098838;28;20089;-70
2022/03/05 02:53:03;;;;;;;71.18;22.50;;;;;;;-2.81;nan;100724.00;5090923;28;20031;-70
2022/03/05 02:55:28;;;;;;;74.93;24.17;;;;;;;-2.83;nan;100718.97;5093847;28;20039;-70
2022/03/05 02:57:54;;;;;;;64.10;21.63;;;;;;;-3.16;nan;100678.03;5095835;28;20047;-70
2022/03/05 03:00:19;;;;;;;66.68;22.17;;;;;;;-2.94;nan;100726.81;5096608;28;20032;-70
2022/03/05 03:02:45;;;;;;;73.05;23.23;;;;;;;-2.88;nan;100730.63;5080183;28;20056;-70
2022/03/05 03:05:14;;;;;;;70.35;23.52;;;;;;;-3.00;nan;100717.81;5091868;28;20097;-70
2022/03/05 03:07:40;;;;;;;61.55;21.77;;;;;;;-2.98;nan;100724.63;5092889;28;20036;-71
2022/03/05 03:10:07;;;;;;;61.47;22.58;;;;;;;-2.94;nan;100733.72;5092496;28;20461;-70
2022/03/05 03:12:33;;;;;;;59.10;20.88;;;;;;;-2.94;nan;100737.13;5098676;28;20054;-71
2022/03/05 03:14:58;;;;;;;57.25;20.42;;;;;;;-3.10;nan;100711.81;5095598;28;20023;-70
2022/03/05 03:17:23;;;;;;;71.47;21.77;;;;;;;-2.91;nan;100742.00;5102010;28;20059;-70
2022/03/05 03:19:49;;;;;;;69.70;22.00;;;;;;;-2.90;nan;100745.41;5096210;28;20071;-70
2022/03/05 03:22:15;;;;;;;79.22;23.92;;;;;;;-3.08;nan;100725.38;5091290;28;20131;-69
2022/03/05 03:24:42;;;;;;;76.93;23.60;;;;;;;-3.04;nan;100737.06;5081330;28;20035;-69
2022/03/05 03:27:07;;;;;;;70.60;24.88;;;;;;;-3.04;nan;100734.50;5098636;28;20024;-70
2022/03/05 03:29:33;;;;;;;70.93;22.10;;;;;;;-3.07;nan;100741.66;5106705;28;20027;-69
2022/03/05 03:31:59;;;;;;;81.22;23.25;;;;;;;-3.08;nan;100732.31;5106491;28;20504;-69
2022/03/05 03:34:24;;;;;;;78.35;25.23;;;;;;;-3.03;nan;100753.34;5092151;28;20043;-70
2022/03/05 03:36:49;;;;;;;82.05;24.52;;;;;;;-3.09;nan;100749.53;5085437;28;20054;-71
2022/03/05 03:39:16;;;;;;;75.68;22.92;;;;;;;-3.11;nan;100737.69;5103909;28;20051;-70
2022/03/05 03:41:41;;;;;;;68.53;22.77;;;;;;;-3.25;nan;100724.22;5097480;28;20059;-71
2022/03/05 03:44:07;;;;;;;68.70;22.73;;;;;;;-3.18;nan;100734.84;5095508;28;20071;-70
2022/03/05 03:46:32;;;;;;;53.33;19.60;;;;;;;-3.16;nan;100735.53;5096698;28;20359;-71
2022/03/05 03:48:58;;;;;;;48.47;19.25;;;;;;;-3.24;nan;100725.03;5082879;28;20067;-71
2022/03/05 03:51:23;;;;;;;54.83;19.13;;;;;;;-3.26;nan;100722.56;5099335;28;20058;-70
2022/03/05 03:53:49;;;;;;;51.72;19.35;;;;;;;-3.15;nan;100744.88;5106494;28;20115;-71
2022/03/05 03:56:14;;;;;;;53.90;19.23;;;;;;;-3.17;nan;100735.66;5083385;28;20028;-70
2022/03/05 03:58:40;;;;;;;54.65;19.27;;;;;;;-3.11;nan;100748.84;5097049;28;20176;-70
2022/03/05 04:01:05;;;;;;;50.25;18.60;;;;;;;-3.14;nan;100749.06;5100880;28;20063;-70
2022/03/05 04:03:31;;;;;;;51.15;18.38;;;;;;;-3.09;nan;100756.41;5086309;28;20044;-71
2022/03/05 04:05:56;;;;;;;50.95;18.42;;;;;;;-3.19;nan;100740.91;5094859;28;20035;-70
2022/03/05 04:11:07;;;;;;;48.75;17.58;;;;;;;-3.13;nan;100755.88;5101205;28;20044;-70
2022/03/05 04:13:32;;;;;;;50.83;18.70;;;;;;;-3.42;nan;100707.59;5089561;28;20371;-70
2022/03/05 04:15:58;;;;;;;50.60;18.88;;;;;;;-3.12;nan;100761.84;5100051;28;20031;-70
2022/03/05 04:18:23;;;;;;;55.97;18.85;;;;;;;-3.13;nan;100763.59;5072860;28;20659;-69
2022/03/05 04:20:49;;;;;;;56.03;18.88;;;;;;;-3.45;nan;100717.31;5100973;28;20076;-70
2022/03/05 04:23:14;;;;;;;51.47;18.58;;;;;;;-3.31;nan;100759.94;5099290;28;20126;-71
2022/03/05 04:25:40;;;;;;;53.83;20.10;;;;;;;-3.40;nan;100743.50;5078444;28;20115;-69
2022/03/05 04:28:05;;;;;;;62.22;22.30;;;;;;;;;;5080930;28;20040;-71
2022/03/05 04:30:30;;;;;;;59.13;22.77;;;;;;;;;;5091048;28;20031;-70
2022/03/05 04:32:55;;;;;;;52.95;20.48;;;;;;;;;;5082151;28;20036;-70
2022/03/05 04:35:21;;;;;;;56.03;20.80;;;;;;;;;;5095783;28;20035;-70
2022/03/05 04:37:47;;;;;;;57.63;20.25;;;;;;;;;;5099938;28;20276;-70
2022/03/05 04:40:12;;;;;;;56.95;20.33;;;;;;;;;;5090660;28;20023;-70
2022/03/05 04:42:37;;;;;;;54.33;20.17;;;;;;;;;;5098514;28;20039;-70
2022/03/05 04:45:03;;;;;;;55.83;20.67;;;;;;;;;;5084877;28;20036;-70
2022/03/05 04:47:28;;;;;;;60.15;20.63;;;;;;;;;;5094104;28;20499;-71
2022/03/05 04:49:53;;;;;;;54.10;20.08;;;;;;;;;;5100166;28;20031;-71
2022/03/05 04:52:19;;;;;;;58.60;21.67;;;;;;;;;;5078957;28;20077;-71
2022/03/05 04:54:44;;;;;;;55.40;20.30;;;;;;;;;;5086522;28;20782;-70
2022/03/05 04:57:10;;;;;;;50.93;20.20;;;;;;;;;;5104820;28;20398;-70
2022/03/05 04:59:35;;;;;;;55.58;21.00;;;;;;;;;;5085060;28;20349;-69
2022/03/05 05:02:02;;;;;;;51.45;20.88;;;;;;;;;;5098008;28;20094;-70
2022/03/05 05:04:27;;;;;;;50.00;19.40;;;;;;;;;;5073463;28;20032;-70
2022/03/05 05:06:52;;;;;;;63.65;21.77;;;;;;;;;;5095857;28;20080;-70
2022/03/05 05:09:17;;;;;;;55.55;20.05;;;;;;;;;;5082869;28;20457;-70
2022/03/05 05:11:43;;;;;;;55.27;20.47;;;;;;;;;;5089686;28;20090;-71
2022/03/05 05:14:08;;;;;;;56.42;20.58;;;;;;;;;;5070679;28;20286;-71
2022/03/05 05:16:34;;;;;;;58.90;20.83;;;;;;;;;;5083573;28;20066;-71
2022/03/05 05:21:43;;;;;;;59.70;20.42;;;;;;;;;;5090705;28;20475;-70
2022/03/05 05:24:08;;;;;;;61.57;19.67;;;;;;;;;;5107415;28;20031;-71
2022/03/05 05:26:33;;;;;;;54.58;19.80;;;;;;;;;;5080445;28;20291;-71
2022/03/05 05:28:59;;;;;;;54.93;19.20;;;;;;;;;;5094712;28;20032;-70
2022/03/05 05:31:24;;;;;;;56.10;19.30;;;;;;;;;;5094865;28;20272;-70
2022/03/05 05:33:50;;;;;;;51.93;19.00;;;;;;;;;;5101221;28;20263;-72
2022/03/05 05:36:15;;;;;;;50.92;19.58;;;;;;;;;;5099073;28;20508;-71
2022/03/05 05:38:40;;;;;;;58.58;20.45;;;;;;;;;;5092883;28;20059;-71
2022/03/05 05:41:06;;;;;;;60.92;21.92;;;;;;;;;;5105565;28;20469;-71
2022/03/05 05:43:32;;;;;;;63.17;21.50;;;;;;;;;;5093608;28;20082;-72
2022/03/05 05:45:57;;;;;;;63.22;21.65;;;;;;;;;;5098912;28;20068;-71
2022/03/05 05:48:22;;;;;;;62.90;23.13;;;;;;;;;;5092780;28;20048;-70
2022/03/05 05:50:47;;;;;;;70.87;22.43;;;;;;;;;;5094396;28;20256;-70
2022/03/05 05:53:13;;;;;;;69.80;24.30;;;;;;;;;;5099753;28;20934;-71
2022/03/05 05:55:38;;;;;;;65.63;23.60;;;;;;;;;;5092176;28;20269;-71
2022/03/05 05:58:03;;;;;;;66.88;24.27;;;;;;;;;;5099548;28;20101;-71
2022/03/05 06:00:29;;;;;;;87.68;26.80;;;;;;;;;;5096263;28;20126;-71
2022/03/05 06:02:54;;;;;;;76.55;26.02;;;;;;;;;;5098998;28;20028;-71
2022/03/05 06:05:19;;;;;;;74.20;25.47;;;;;;;;;;5101176;28;20050;-71
2022/03/05 06:07:44;;;;;;;68.47;23.63;;;;;;;-3.16;nan;100804.22;5097504;28;20046;-70
2022/03/05 06:10:10;;;;;;;61.00;21.45;;;;;;;-3.32;nan;100774.59;5092586;28;20776;-72
2022/03/05 06:12:36;;;;;;;74.07;23.30;;;;;;;-3.10;nan;100806.31;5083730;28;20075;-72
2022/03/05 06:15:03;;;;;;;61.38;23.58;;;;;;;-3.08;nan;100809.59;5080205;28;20054;-72
2022/03/05 06:17:29;;;;;;;74.10;23.77;;;;;;;-3.13;nan;100791.13;5076187;28;20111;-73
2022/03/05 06:19:55;;;;;;;56.60;21.05;;;;;;;-2.97;nan;100808.69;5085719;28;20146;-74
2022/03/05 06:22:20;;;;;;;53.28;20.58;;;;;;;-2.93;nan;100810.88;5100083;28;20566;-69
2022/03/05 06:24:46;;;;;;;58.20;21.17;;;;;;;-2.98;nan;100801.91;5084926;28;20028;-72
2022/03/05 06:27:11;;;;;;;65.75;25.98;;;;;;;-2.90;nan;100808.06;5105054;28;20409;-71
2022/03/05 06:29:36;;;;;;;73.35;27.38;;;;;;;-2.92;nan;100801.38;5094616;28;20032;-71
2022/03/05 06:32:02;;;;;;;67.10;25.98;;;;;;;-2.88;nan;100807.94;5101849;28;20023;-71
2022/03/05 06:34:28;;;;;;;54.13;21.92;;;;;;;-2.84;nan;100810.13;5083795;28;20027;-73
2022/03/05 06:36:55;;;;;;;57.47;22.35;;;;;;;-2.81;nan;100802.13;5081072;28;20039;-69
2022/03/05 06:39:20;;;;;;;58.10;21.63;;;;;;;-2.73;nan;100808.41;5105534;28;20039;-71
2022/03/05 06:41:46;;;;;;;65.63;24.15;;;;;;;-2.64;nan;100820.53;5096529;28;24588;-72
2022/03/05 06:44:12;;;;;;;65.10;25.45;;;;;;;-2.62;nan;100816.88;5102392;28;20043;-72
2022/03/05 06:46:37;;;;;;;79.43;28.05;;;;;;;-2.52;nan;100823.84;5088375;28;20028;-72
2022/03/05 06:49:02;;;;;;;97.32;33.67;;;;;;;-2.56;nan;100818.16;5109905;28;20056;-71
2022/03/05 06:51:28;;;;;;;105.63;36.33;;;;;;;-2.43;nan;100823.88;5088169;28;20512;-72
2022/03/05 06:53:53;;;;;;;113.28;42.15;;;;;;;-2.34;nan;100831.81;5106861;28;20032;-71
2022/03/05 06:56:19;;;;;;;120.15;42.70;;;;;;;-2.37;nan;100818.22;5109122;28;20118;-72
2022/03/05 06:58:45;;;;;;;111.40;39.28;;;;;;;-2.21;nan;100829.78;5079364;28;20074;-71
2022/03/05 07:01:10;;;;;;;100.43;35.42;;;;;;;-2.18;nan;100832.09;5081346;28;20032;-72
2022/03/05 07:03:36;;;;;;;90.10;29.88;;;;;;;-2.11;nan;100830.63;5080641;28;20036;-73
2022/03/05 07:06:02;;;;;;;74.50;26.98;;;;;;;-2.05;nan;100837.03;5078413;28;20036;-72
2022/03/05 07:08:28;;;;;;;77.60;25.55;;;;;;;-2.01;nan;100830.66;5083497;28;20081;-72
2022/03/05 07:10:53;;;;;;;67.25;24.33;;;;;;;-1.95;nan;100836.09;5083230;28;20036;-72
2022/03/05 07:13:19;;;;;;;61.78;23.63;;;;;;;-1.95;nan;100828.38;5075617;28;20032;-71
2022/03/05 07:15:44;;;;;;;58.10;22.83;;;;;;;-1.84;nan;100840.34;5078352;28;20039;-72
2022/03/05 07:18:10;;;;;;;62.83;21.80;;;;;;;-1.85;nan;100825.00;5071871;28;20064;-72
2022/03/05 07:20:35;;;;;;;55.95;21.55;;;;;;;-1.70;nan;100844.28;5071713;28;20036;-71
2022/03/05 07:23:03;;;;;;;66.05;23.67;;;;;;;-1.66;nan;100837.13;5072218;28;20056;-71
2022/03/05 07:25:29;;;;;;;65.47;23.13;;;;;;;-1.96;nan;100785.47;5080871;28;20038;-72
2022/03/05 07:27:54;;;;;;;62.00;20.85;;;;;;;-1.58;nan;100838.09;5081023;28;20036;-71
2022/03/05 07:30:19;;;;;;;55.42;21.38;;;;;;;-1.46;nan;100848.25;5080611;28;20085;-71
2022/03/05 07:32:46;;;;;;;64.47;23.10;;;;;;;-1.55;nan;100834.41;5081434;28;20470;-72
2022/03/05 07:35:11;;;;;;;54.42;22.13;;;;;;;-1.39;nan;100841.59;5085335;28;20036;-72
2022/03/05 07:37:37;;;;;;;59.25;24.48;;;;;;;-1.34;nan;100831.69;5076923;28;20032;-72
2022/03/05 07:40:03;;;;;;;59.63;22.58;;;;;;;-1.21;nan;100844.34;5072141;28;20124;-71
2022/03/05 07:42:29;;;;;;;58.85;21.70;;;;;;;-1.24;nan;100835.09;5082209;28;20495;-72
2022/03/05 07:44:54;;;;;;;54.30;21.27;;;;;;;-1.16;nan;100835.22;5075090;28;20038;-72
2022/03/05 07:47:20;;;;;;;57.35;21.73;;;;;;;-1.09;nan;100844.03;5075277;28;20119;-71
2022/03/05 07:49:45;;;;;;;56.28;21.88;;;;;;;-1.10;nan;100837.25;5084309;28;20032;-73
2022/03/05 07:52:11;;;;;;;58.10;22.83;;;;;;;-1.17;nan;100809.53;5075922;28;20646;-70
2022/03/05 07:54:36;;;;;;;55.97;22.50;;;;;;;-0.82;nan;100846.84;5083286;28;20101;-73
2022/03/05 07:57:01;;;;;;;59.55;21.75;;;;;;;-0.77;nan;100844.66;5086036;28;20040;-71
2022/03/05 07:59:27;;;;;;;54.72;22.40;;;;;;;-0.74;nan;100852.97;5077887;28;20052;-75
2022/03/05 08:01:53;;;;;;;59.38;22.35;;;;;;;-0.73;nan;100836.50;5072814;28;20078;-74
2022/03/05 08:04:18;;;;;;;55.75;21.58;;;;;;;-0.61;nan;100842.31;5071986;28;20098;-73
2022/03/05 08:06:43;;;;;;;116.03;34.97;;;;;;;-0.65;nan;100815.94;5086319;28;20035;-73
2022/03/05 08:09:09;;;;;;;63.70;22.73;;;;;;;-0.30;nan;100844.66;5077955;28;20032;-74
2022/03/05 08:11:35;;;;;;;64.28;23.65;;;;;;;-0.19;nan;100834.13;5073000;28;20432;-73
2022/03/05 08:14:00;;;;;;;71.10;27.25;;;;;;;0.02;nan;100841.63;5071793;28;20036;-73
2022/03/05 08:16:26;;;;;;;81.03;29.13;;;;;;;0.17;nan;100844.56;5068758;28;20041;-74
2022/03/05 08:18:51;;;;;;;66.00;25.33;;;;;;;0.41;nan;100849.97;5074199;28;20036;-73
2022/03/05 08:21:17;;;;;;;60.92;25.08;;;;;;;0.57;nan;100864.03;5073441;28;20501;-73
2022/03/05 08:23:42;;;;;;;59.70;23.38;;;;;;;0.52;nan;100843.75;5076015;28;20639;-73
2022/03/05 08:26:13;;;;;;;76.60;28.48;;;;;;;0.63;nan;100845.31;5075953;28;20941;-73
2022/03/05 08:28:38;;;;;;;69.68;28.90;;;;;;;0.83;nan;100851.94;5075708;28;20033;-73
2022/03/05 08:31:04;;;;;;;66.80;27.42;;;;;;;0.81;nan;100843.53;5077700;28;20035;-72
2022/03/05 08:33:30;;;;;;;59.08;23.67;;;;;;;0.98;nan;100862.63;5072523;28;20046;-72
2022/03/05 08:35:55;;;;;;;59.30;25.42;;;;;;;0.90;nan;100843.56;5069183;28;20123;-72
2022/03/05 08:38:21;;;;;;;60.72;24.23;;;;;;;1.05;nan;100860.22;5070069;28;20139;-71
2022/03/05 08:40:46;;;;;;;61.00;25.08;;;;;;;1.07;nan;100858.28;5084378;28;20044;-73
2022/03/05 08:43:12;;;;;;;56.80;25.30;;;;;;;1.10;nan;100852.78;5075546;28;20028;-74
2022/03/05 08:45:39;;;;;;;57.40;24.05;;;;;;;1.21;nan;100862.13;5075168;28;20153;-71
2022/03/05 08:48:04;;;;;;;51.85;21.88;;;;;;;1.27;nan;100857.13;5073709;28;20050;-71
2022/03/05 08:50:30;;;;;;;55.95;22.33;;;;;;;1.36;nan;100855.38;5073140;28;20032;-72
2022/03/05 08:52:55;;;;;;;53.42;21.85;;;;;;;1.61;nan;100877.13;5068829;28;20028;-72
2022/03/05 08:55:21;;;;;;;56.17;23.40;;;;;;;1.60;nan;100857.28;5069811;28;20029;-71
2022/03/05 08:57:46;;;;;;;53.22;23.42;;;;;;;1.64;nan;100871.59;5082640;28;20047;-73
2022/03/05 09:00:14;;;;;;;59.20;22.60;;;;;;;1.70;nan;100872.78;5092985;28;20046;-72
2022/03/05 09:02:39;;;;;;;58.42;22.67;;;;;;;1.74;nan;100855.09;5088695;28;20039;-72
2022/03/05 09:05:05;;;;;;;58.45;23.30;;;;;;;1.96;nan;100871.91;5082611;28;20038;-71
2022/03/05 09:07:31;;;;;;;59.20;24.42;;;;;;;2.06;nan;100872.56;5095541;28;20397;-73
2022/03/05 09:09:56;;;;;;;71.43;27.25;;;;;;;2.02;nan;100868.69;5089586;28;20078;-73
2022/03/05 09:12:22;;;;;;;90.65;32.60;;;;;;;2.15;nan;100863.84;5103477;28;20031;-74
2022/03/05 09:14:48;;;;;;;62.85;24.45;;;;;;;2.19;nan;100857.38;5093264;28;20032;-72
2022/03/05 09:17:15;;;;;;;58.00;24.45;;;;;;;2.42;nan;100869.75;5096074;28;20027;-72
2022/03/05 09:19:41;;;;;;;51.92;22.30;;;;;;;2.54;nan;100868.50;5089393;28;20489;-72
2022/03/05 09:22:09;;;;;;;61.97;25.17;;;;;;;2.68;nan;100877.41;5088068;28;20162;-71
2022/03/05 09:24:34;;;;;;;53.20;22.50;;;;;;;2.71;nan;100870.13;5090371;28;20036;-70
2022/03/05 09:27:00;;;;;;;54.50;22.40;;;;;;;2.70;nan;100868.47;5091764;28;20050;-71
2022/03/05 09:29:25;;;;;;;52.67;22.13;;;;;;;2.69;nan;100866.88;5086645;28;20431;-71
2022/03/05 09:31:51;;;;;;;48.35;21.63;;;;;;;2.39;nan;100864.88;5099045;28;20028;-71
2022/03/05 09:34:16;;;;;;;52.45;21.48;;;;;;;2.48;nan;100869.13;5085561;28;20111;-73
2022/03/05 09:36:42;;;;;;;51.88;22.42;;;;;;;2.12;nan;100851.97;5092130;28;20091;-73
2022/03/05 09:39:08;;;;;;;53.45;22.42;;;;;;;2.21;nan;100857.22;5091979;28;20051;-71
2022/03/05 09:41:33;;;;;;;51.97;22.25;;;;;;;2.34;nan;100860.16;5097627;28;20036;-71
2022/03/05 09:43:59;;;;;;;49.72;21.90;;;;;;;2.49;nan;100858.56;5104909;28;20039;-71
2022/03/05 09:46:26;;;;;;;52.72;20.65;;;;;;;2.56;nan;100848.31;5095562;28;20059;-72
2022/03/05 09:48:56;;;;;;;53.60;21.85;;;;;;;2.65;nan;100847.34;5083641;28;20036;-72
2022/03/05 09:51:23;;;;;;;48.03;21.38;;;;;;;2.94;nan;100852.06;5101137;28;20032;-71
2022/03/05 09:53:51;;;;;;;53.97;23.48;;;;;;;3.03;nan;100842.47;5094319;28;20058;-72
2022/03/05 09:56:17;;;;;;;45.07;20.90;;;;;;;3.08;nan;100842.78;5099992;28;20066;-71
2022/03/05 09:58:43;;;;;;;52.03;22.92;;;;;;;3.08;nan;100852.41;5076573;28;20316;-72
2022/03/05 10:01:08;;;;;;;54.85;22.42;;;;;;;3.01;nan;100847.03;5104118;28;20544;-72
2022/03/05 10:03:52;;;;;;;52.15;22.48;;;;;;;2.80;nan;100846.72;5099869;28;20085;-72
2022/03/05 10:06:18;;;;;;;49.72;21.45;;;;;;;2.78;nan;100859.91;5082300;28;20461;-70
2022/03/05 10:08:45;;;;;;;46.35;21.42;;;;;;;2.86;nan;100844.28;5105583;28;20111;-69
2022/03/05 10:11:12;;;;;;;47.38;21.15;;;;;;;3.01;nan;100833.22;5088589;28;20366;-70
2022/03/05 10:13:38;;;;;;;48.15;21.92;;;;;;;3.26;nan;100841.81;5104859;28;20115;-71
2022/03/05 10:16:24;;;;;;;53.70;22.23;;;;;;;3.29;nan;100850.09;5114490;28;20139;-71
2022/03/05 10:18:50;;;;;;;50.47;20.38;;;;;;;3.33;nan;100834.97;5103778;28;20028;-70
2022/03/05 10:21:16;;;;;;;50.15;22.15;;;;;;;3.47;nan;100849.91;5082688;28;20089;-71
2022/03/05 10:23:47;;;;;;;49.83;21.60;;;;;;;3.55;nan;100839.44;5101337;28;20039;-71
2022/03/05 10:26:21;;;;;;;50.83;21.60;;;;;;;3.46;nan;100840.44;5097800;28;20036;-68
2022/03/05 10:28:47;;;;;;;48.42;21.42;;;;;;;3.42;nan;100841.75;5097121;28;20493;-71
2022/03/05 10:31:13;;;;;;;50.15;20.92;;;;;;;3.53;nan;100846.59;5096328;28;20114;-70
2022/03/05 10:33:41;;;;;;;59.63;25.13;;;;;;;3.60;nan;100844.97;5102519;28;20493;-68
2022/03/05 10:36:09;;;;;;;52.63;22.48;;;;;;;3.63;nan;100826.38;5091760;28;20057;-69
2022/03/05 10:38:52;;;;;;;46.58;20.95;;;;;;;3.86;nan;100841.28;5091549;28;20093;-70
2022/03/05 10:41:31;;;;;;;52.50;22.08;;;;;;;3.83;nan;100834.63;5099630;28;20056;-69
2022/03/05 10:44:07;;;;;;;47.08;21.55;;;;;;;3.54;nan;100822.19;5078882;28;20561;-68
2022/03/05 10:46:58;;;;;;;48.53;21.77;;;;;;;3.72;nan;100831.56;5099185;28;20117;-72
2022/03/05 10:49:36;;;;;;;47.15;20.92;;;;;;;3.84;nan;100833.63;5072924;28;20028;-70
2022/03/05 10:52:07;;;;;;;47.80;21.65;;;;;;;3.99;nan;100830.31;5092239;28;20469;-70
2022/03/05 10:54:40;;;;;;;51.97;21.90;;;;;;;3.97;nan;100820.03;5098056;28;20774;-69
2022/03/05 10:57:13;;;;;;;52.03;22.33;;;;;;;3.95;nan;100829.84;5089387;28;20446;-70
2022/03/05 10:59:49;;;;;;;51.03;21.92;;;;;;;3.92;nan;100816.34;5088186;28;20078;-69
2022/03/05 11:02:19;;;;;;;46.88;21.38;;;;;;;4.00;nan;100818.91;5106408;28;21044;-69
2022/03/05 11:04:46;;;;;;;50.25;22.50;;;;;;;4.17;nan;100817.81;5097153;28;20032;-70
2022/03/05 11:07:16;;;;;;;45.15;20.15;;;;;;;4.18;nan;100821.25;5093647;28;20036;-70
2022/03/05 11:09:43;;;;;;;45.20;20.20;;;;;;;4.20;nan;100812.25;5093632;28;20034;-70
2022/03/05 11:12:14;;;;;;;41.13;19.85;;;;;;;4.11;nan;100804.66;5097532;28;20046;-68
2022/03/05 11:14:43;;;;;;;46.85;19.85;;;;;;;4.15;nan;100817.19;5074491;28;20043;-69
2022/03/05 11:17:09;;;;;;;;;;;;;;;4.16;nan;100815.38;5077853;28;20167;-69
2022/03/05 11:19:35;;;;;;;37.75;18.48;;;;;;;4.00;nan;100795.47;5094914;28;20362;-69
2022/03/05 11:22:01;;;;;;;39.30;18.50;;;;;;;4.09;nan;100804.84;5096205;28;20031;-70
2022/03/05 11:24:27;;;;;;;42.50;19.67;;;;;;;4.17;nan;100802.19;5095345;28;20032;-69
2022/03/05 11:26:55;;;;;;;41.80;20.45;;;;;;;4.13;nan;100792.28;5094469;28;20063;-69
2022/03/05 11:29:25;;;;;;;46.72;20.90;;;;;;;4.09;nan;100780.56;5091654;28;20035;-70
2022/03/05 11:31:51;;;;;;;47.60;21.25;;;;;;;4.14;nan;100794.72;5091701;28;20067;-69
2022/03/05 11:34:19;;;;;;;47.20;20.73;;;;;;;4.21;nan;100794.81;5074500;28;20051;-69
2022/03/05 11:36:47;;;;;;;45.95;20.50;;;;;;;4.24;nan;100790.09;5073420;28;20086;-70
2022/03/05 11:39:15;;;;;;;43.83;19.73;;;;;;;4.19;nan;100786.34;5076038;28;20035;-69
2022/03/05 11:41:53;;;;;;;43.13;20.23;;;;;;;4.32;nan;100783.19;5081508;28;20032;-69
2022/03/05 11:44:21;;;;;;;44.65;20.17;;;;;;;4.54;nan;100779.75;5103427;28;20485;-70
2022/03/05 11:46:47;;;;;;;43.03;20.67;;;;;;;4.71;nan;100774.41;5092290;28;20035;-69